createdAt,value
2019-01-11T00:00:49.418Z,0
2019-01-11T00:01:59.517Z,0
2019-01-11T00:03:09.632Z,0
2019-01-11T00:04:19.769Z,0
2019-01-11T00:05:29.882Z,0
2019-01-11T00:06:40.004Z,0
2019-01-11T00:07:50.151Z,0
2019-01-11T00:09:00.011Z,0
2019-01-11T00:10:10.153Z,0
2019-01-11T00:11:20.280Z,0
2019-01-11T00:12:30.417Z,0
2019-01-11T00:13:40.522Z,0
2019-01-11T00:14:50.650Z,0
2019-01-11T00:16:00.751Z,0
2019-01-11T00:17:10.862Z,0
2019-01-11T00:18:21.964Z,0
2019-01-11T00:19:32.092Z,0
2019-01-11T00:20:42.202Z,0
2019-01-11T00:21:52.316Z,0
2019-01-11T00:23:02.437Z,0
2019-01-11T00:24:12.555Z,0
2019-01-11T00:25:22.667Z,0
2019-01-11T00:26:32.793Z,0
2019-01-11T00:27:42.901Z,0
2019-01-11T00:28:53.940Z,0
2019-01-11T00:30:04.055Z,0
2019-01-11T00:31:13.815Z,0
2019-01-11T00:32:23.929Z,0
2019-01-11T00:33:34.039Z,0
2019-01-11T00:34:44.147Z,0
2019-01-11T00:35:54.304Z,0
2019-01-11T00:37:04.163Z,0
2019-01-11T00:38:14.259Z,0
2019-01-11T00:39:24.401Z,0
2019-01-11T00:40:34.541Z,0
2019-01-11T00:41:44.654Z,0
2019-01-11T00:42:54.768Z,0
2019-01-11T00:44:04.982Z,0
2019-01-11T00:45:15.100Z,0
2019-01-11T00:46:24.950Z,0
2019-01-11T00:47:35.072Z,0
2019-01-11T00:48:45.183Z,0
2019-01-11T00:49:55.317Z,0
2019-01-11T00:51:05.444Z,0
2019-01-11T00:52:15.557Z,0
2019-01-11T00:53:25.673Z,0
2019-01-11T00:54:35.794Z,0
2019-01-11T00:55:45.926Z,0
2019-01-11T00:56:56.060Z,0
2019-01-11T00:58:06.164Z,0
2019-01-11T00:59:16.479Z,0
2019-01-11T01:00:26.581Z,0
2019-01-11T01:01:36.702Z,0
2019-01-11T01:02:46.803Z,0
2019-01-11T01:03:56.917Z,0
2019-01-11T01:05:07.016Z,0
2019-01-11T01:06:17.146Z,0
2019-01-11T01:07:27.245Z,0
2019-01-11T01:08:40.324Z,0
2019-01-11T01:09:51.419Z,0
2019-01-11T01:11:01.558Z,0
2019-01-11T01:12:11.666Z,0
2019-01-11T01:13:21.794Z,0
2019-01-11T01:14:31.899Z,0
2019-01-11T01:15:42.004Z,0
2019-01-11T01:16:52.129Z,0
2019-01-11T01:18:02.253Z,0
2019-01-11T01:19:12.357Z,0
2019-01-11T01:20:22.491Z,0
2019-01-11T01:21:32.588Z,0
2019-01-11T01:22:42.689Z,0
2019-01-11T01:23:52.800Z,0
2019-01-11T01:25:02.909Z,0
2019-01-11T01:26:13.004Z,0
2019-01-11T01:27:23.231Z,0
2019-01-11T01:28:32.973Z,0
2019-01-11T01:29:43.072Z,0
2019-01-11T01:30:53.184Z,0
2019-01-11T01:32:03.278Z,0
2019-01-11T01:33:13.382Z,0
2019-01-11T01:34:23.495Z,0
2019-01-11T01:35:33.604Z,0
2019-01-11T01:36:43.723Z,0
2019-01-11T01:37:53.845Z,0
2019-01-11T01:39:03.601Z,0
2019-01-11T01:40:13.714Z,0
2019-01-11T01:41:23.821Z,0
2019-01-11T01:42:33.954Z,0
2019-01-11T01:43:44.047Z,0
2019-01-11T01:44:54.170Z,0
2019-01-11T01:46:04.284Z,0
2019-01-11T01:47:14.376Z,0
2019-01-11T01:48:24.474Z,0
2019-01-11T01:49:36.395Z,0
2019-01-11T01:50:46.527Z,0
2019-01-11T01:51:56.667Z,0
2019-01-11T01:53:06.763Z,0
2019-01-11T01:54:16.863Z,0
2019-01-11T01:55:27.002Z,0
2019-01-11T01:56:37.123Z,0
2019-01-11T01:57:47.258Z,0
2019-01-11T01:58:57.350Z,0
2019-01-11T02:00:07.502Z,0
2019-01-11T02:01:17.605Z,0
2019-01-11T02:02:27.703Z,0
2019-01-11T02:03:37.803Z,0
2019-01-11T02:04:47.903Z,0
2019-01-11T02:05:58.026Z,0
2019-01-11T02:07:08.132Z,0
2019-01-11T02:08:18.255Z,0
2019-01-11T02:09:28.362Z,0
2019-01-11T02:10:38.467Z,0
2019-01-11T02:11:48.593Z,0
2019-01-11T02:12:58.329Z,0
2019-01-11T02:14:08.426Z,0
2019-01-11T02:15:18.522Z,0
2019-01-11T02:16:28.611Z,0
2019-01-11T02:17:38.708Z,0
2019-01-11T02:18:48.584Z,0
2019-01-11T02:19:58.685Z,0
2019-01-11T02:21:08.787Z,0
2019-01-11T02:22:18.884Z,0
2019-01-11T02:23:28.998Z,0
2019-01-11T02:24:39.094Z,0
2019-01-11T02:25:53.513Z,0
2019-01-11T02:27:03.611Z,0
2019-01-11T02:28:13.487Z,0
2019-01-11T02:29:23.578Z,0
2019-01-11T02:30:33.679Z,0
2019-01-11T02:31:43.796Z,0
2019-01-11T02:33:00.208Z,0
2019-01-11T02:34:10.324Z,0
2019-01-11T02:35:20.454Z,0
2019-01-11T02:36:30.711Z,0
2019-01-11T02:37:40.886Z,0
2019-01-11T02:38:51.010Z,0
2019-01-11T02:40:01.151Z,0
2019-01-11T02:41:11.248Z,0
2019-01-11T02:42:21.370Z,0
2019-01-11T02:43:31.474Z,0
2019-01-11T02:44:42.357Z,0
2019-01-11T02:45:52.463Z,0
2019-01-11T02:47:02.216Z,0
2019-01-11T02:48:12.326Z,0
2019-01-11T02:49:22.438Z,0
2019-01-11T02:50:32.557Z,0
2019-01-11T02:51:42.658Z,0
2019-01-11T02:52:52.769Z,0
2019-01-11T02:54:02.941Z,0
2019-01-11T02:55:12.798Z,0
2019-01-11T02:56:22.906Z,0
2019-01-11T02:57:32.998Z,0
2019-01-11T02:58:43.109Z,0
2019-01-11T02:59:53.223Z,0
2019-01-11T03:01:03.330Z,0
2019-01-11T03:02:13.434Z,0
2019-01-11T03:03:23.313Z,0
2019-01-11T03:04:33.421Z,0
2019-01-11T03:05:43.521Z,0
2019-01-11T03:06:53.623Z,0
2019-01-11T03:08:03.738Z,0
2019-01-11T03:09:13.866Z,0
2019-01-11T03:10:23.714Z,0
2019-01-11T03:11:33.819Z,0
2019-01-11T03:12:43.915Z,0
2019-01-11T03:13:54.005Z,0
2019-01-11T03:15:04.125Z,0
2019-01-11T03:16:14.244Z,0
2019-01-11T03:17:24.338Z,0
2019-01-11T03:18:34.660Z,0
2019-01-11T03:19:52.492Z,0
2019-01-11T03:21:02.583Z,0
2019-01-11T03:22:12.773Z,0
2019-01-11T03:23:22.884Z,0
2019-01-11T03:24:32.992Z,0
2019-01-11T03:25:43.095Z,0
2019-01-11T03:26:53.193Z,0
2019-01-11T03:28:03.300Z,0
2019-01-11T03:29:13.405Z,0
2019-01-11T03:30:23.550Z,0
2019-01-11T03:31:33.681Z,0
2019-01-11T03:32:43.625Z,0
2019-01-11T03:33:53.796Z,0
2019-01-11T03:35:03.901Z,0
2019-01-11T03:36:14.771Z,0
2019-01-11T03:37:24.880Z,0
2019-01-11T03:38:34.975Z,0
2019-01-11T03:39:45.143Z,0
2019-01-11T03:40:55.249Z,0
2019-01-11T03:42:05.357Z,0
2019-01-11T03:43:15.461Z,0
2019-01-11T03:44:25.612Z,0
2019-01-11T03:45:37.400Z,0
2019-01-11T03:46:47.499Z,0
2019-01-11T03:47:57.609Z,0
2019-01-11T03:49:07.728Z,0
2019-01-11T03:50:17.847Z,0
2019-01-11T03:51:27.951Z,0
2019-01-11T03:52:38.061Z,0
2019-01-11T03:53:48.159Z,0
2019-01-11T03:54:58.285Z,0
2019-01-11T03:56:08.393Z,0
2019-01-11T03:57:18.235Z,0
2019-01-11T03:58:28.348Z,0
2019-01-11T03:59:38.496Z,0
2019-01-11T04:00:48.595Z,0
2019-01-11T04:01:58.703Z,0
2019-01-11T04:03:08.820Z,0
2019-01-11T04:04:18.933Z,0
2019-01-11T04:05:29.082Z,0
2019-01-11T04:06:39.188Z,0
2019-01-11T04:07:49.036Z,0
2019-01-11T04:08:59.146Z,0
2019-01-11T04:10:09.271Z,0
2019-01-11T04:11:19.391Z,0
2019-01-11T04:12:29.511Z,0
2019-01-11T04:13:40.363Z,0
2019-01-11T04:14:50.457Z,0
2019-01-11T04:16:01.500Z,0
2019-01-11T04:17:11.588Z,0
2019-01-11T04:18:21.684Z,0
2019-01-11T04:19:31.795Z,0
2019-01-11T04:20:41.928Z,0
2019-01-11T04:21:52.043Z,0
2019-01-11T04:23:02.152Z,0
2019-01-11T04:24:12.246Z,0
2019-01-11T04:25:22.349Z,0
2019-01-11T04:26:32.457Z,0
2019-01-11T04:27:42.569Z,0
2019-01-11T04:28:52.163Z,0
2019-01-11T04:30:02.272Z,0
2019-01-11T04:31:12.407Z,0
2019-01-11T04:32:22.524Z,0
2019-01-11T04:33:32.615Z,0
2019-01-11T04:34:42.712Z,0
2019-01-11T04:35:52.565Z,0
2019-01-11T04:37:02.891Z,0
2019-01-11T04:38:12.995Z,0
2019-01-11T04:39:23.111Z,0
2019-01-11T04:40:39.064Z,0
2019-01-11T04:41:49.172Z,0
2019-01-11T04:42:59.272Z,0
2019-01-11T04:44:09.384Z,0
2019-01-11T04:45:19.514Z,0
2019-01-11T04:46:29.623Z,0
2019-01-11T04:47:39.470Z,0
2019-01-11T04:48:49.569Z,0
2019-01-11T04:49:59.675Z,0
2019-01-11T04:51:09.784Z,0
2019-01-11T04:52:19.880Z,0
2019-01-11T04:53:30.080Z,0
2019-01-11T04:54:39.925Z,0
2019-01-11T04:55:50.037Z,0
2019-01-11T04:57:00.128Z,0
2019-01-11T04:58:11.648Z,0
2019-01-11T04:59:21.517Z,0
2019-01-11T05:00:31.397Z,0
2019-01-11T05:01:41.504Z,0
2019-01-11T05:02:51.616Z,0
2019-01-11T05:04:01.722Z,0
2019-01-11T05:05:11.845Z,0
2019-01-11T05:06:21.967Z,0
2019-01-11T05:07:32.067Z,0
2019-01-11T05:08:42.168Z,0
2019-01-11T05:09:52.278Z,0
2019-01-11T05:11:02.461Z,0
2019-01-11T05:12:12.593Z,0
2019-01-11T05:13:22.692Z,0
2019-01-11T05:14:32.816Z,0
2019-01-11T05:15:42.930Z,0
2019-01-11T05:16:53.029Z,0
2019-01-11T05:18:03.140Z,0
2019-01-11T05:19:13.244Z,0
2019-01-11T05:20:26.574Z,0
2019-01-11T05:21:36.670Z,0
2019-01-11T05:22:46.788Z,0
2019-01-11T05:23:56.902Z,0
2019-01-11T05:25:07.038Z,0
2019-01-11T05:26:17.177Z,0
2019-01-11T05:27:26.779Z,0
2019-01-11T05:28:36.883Z,0
2019-01-11T05:29:47.000Z,0
2019-01-11T05:30:57.114Z,0
2019-01-11T05:32:07.227Z,0
2019-01-11T05:33:16.983Z,0
2019-01-11T05:34:27.090Z,0
2019-01-11T05:35:37.187Z,0
2019-01-11T05:36:47.294Z,0
2019-01-11T05:37:56.789Z,0
2019-01-11T05:39:06.892Z,0
2019-01-11T05:40:17.978Z,0
2019-01-11T05:41:28.294Z,0
2019-01-11T05:42:38.397Z,0
2019-01-11T05:43:48.512Z,0
2019-01-11T05:44:58.628Z,0
2019-01-11T05:46:08.721Z,0
2019-01-11T05:47:18.864Z,0
2019-01-11T05:48:28.979Z,0
2019-01-11T05:49:39.098Z,0
2019-01-11T05:50:49.190Z,0
2019-01-11T05:51:59.296Z,0
2019-01-11T05:53:09.425Z,0
2019-01-11T05:54:19.517Z,0
2019-01-11T05:55:29.385Z,0
2019-01-11T05:56:39.576Z,0
2019-01-11T05:57:49.694Z,0
2019-01-11T05:58:59.792Z,0
2019-01-11T06:00:09.900Z,0
2019-01-11T06:01:20.016Z,0
2019-01-11T06:02:30.121Z,0
2019-01-11T06:03:40.247Z,0
2019-01-11T06:04:50.381Z,0
2019-01-11T06:06:00.540Z,0
2019-01-11T06:07:10.426Z,0
2019-01-11T06:08:20.561Z,0
2019-01-11T06:09:30.654Z,0
2019-01-11T06:10:40.777Z,0
2019-01-11T06:11:50.889Z,0
2019-01-11T06:13:00.732Z,0
2019-01-11T06:14:11.813Z,0
2019-01-11T06:15:21.943Z,0
2019-01-11T06:16:32.081Z,0
2019-01-11T06:17:42.208Z,0
2019-01-11T06:18:52.423Z,0
2019-01-11T06:20:02.553Z,0
2019-01-11T06:21:12.667Z,0
2019-01-11T06:22:22.760Z,0
2019-01-11T06:23:32.900Z,0
2019-01-11T06:24:43.006Z,0
2019-01-11T06:25:53.149Z,0
2019-01-11T06:27:03.468Z,0
2019-01-11T06:28:13.575Z,0
2019-01-11T06:29:23.691Z,0
2019-01-11T06:30:33.799Z,0
2019-01-11T06:31:43.911Z,0
2019-01-11T06:32:54.008Z,0
2019-01-11T06:34:05.102Z,0
2019-01-11T06:35:15.277Z,0
2019-01-11T06:36:25.390Z,0
2019-01-11T06:37:35.502Z,0
2019-01-11T06:38:45.599Z,0
2019-01-11T06:39:55.714Z,0
2019-01-11T06:41:05.826Z,0
2019-01-11T06:42:15.937Z,0
2019-01-11T06:43:26.037Z,0
2019-01-11T06:44:41.413Z,0
2019-01-11T06:45:51.501Z,0
2019-01-11T06:47:01.602Z,0
2019-01-11T06:48:11.761Z,0
2019-01-11T06:49:21.893Z,0
2019-01-11T06:50:36.434Z,0
2019-01-11T06:51:46.410Z,0
2019-01-11T06:52:57.927Z,0
2019-01-11T06:54:07.410Z,0
2019-01-11T06:55:17.519Z,0
2019-01-11T06:56:27.636Z,0
2019-01-11T06:57:37.730Z,0
2019-01-11T06:58:47.847Z,0
2019-01-11T06:59:57.949Z,0
2019-01-11T07:01:08.053Z,0
2019-01-11T07:02:18.161Z,0
2019-01-11T07:03:29.044Z,0
2019-01-11T07:04:39.199Z,0
2019-01-11T07:05:49.331Z,0
2019-01-11T07:06:59.439Z,0
2019-01-11T07:08:09.564Z,0
2019-01-11T07:09:19.684Z,0
2019-01-11T07:10:29.791Z,0
2019-01-11T07:11:39.888Z,0
2019-01-11T07:12:50.018Z,0
2019-01-11T07:14:00.117Z,0
2019-01-11T07:15:10.234Z,0
2019-01-11T07:16:20.367Z,0
2019-01-11T07:17:30.498Z,0
2019-01-11T07:18:40.820Z,0
2019-01-11T07:19:50.958Z,0
2019-01-11T07:21:01.076Z,0
2019-01-11T07:22:11.181Z,0
2019-01-11T07:23:21.298Z,0
2019-01-11T07:24:31.162Z,0
2019-01-11T07:25:41.278Z,0
2019-01-11T07:26:51.394Z,0
2019-01-11T07:28:01.500Z,0
2019-01-11T07:29:11.607Z,0
2019-01-11T07:30:21.351Z,0
2019-01-11T07:31:31.214Z,0
2019-01-11T07:32:41.325Z,0
2019-01-11T07:33:51.419Z,0
2019-01-11T07:35:01.515Z,0
2019-01-11T07:36:11.629Z,0
2019-01-11T07:37:21.746Z,0
2019-01-11T07:38:31.847Z,0
2019-01-11T07:39:41.956Z,0
2019-01-11T07:40:52.061Z,0
2019-01-11T07:42:02.165Z,0
2019-01-11T07:43:12.279Z,0
2019-01-11T07:44:22.162Z,0
2019-01-11T07:45:32.263Z,0
2019-01-11T07:46:42.377Z,0
2019-01-11T07:47:52.476Z,0
2019-01-11T07:49:02.586Z,0
2019-01-11T07:50:12.462Z,5
2019-01-11T07:51:22.584Z,5
2019-01-11T07:52:32.436Z,5
2019-01-11T07:53:42.569Z,5
2019-01-11T07:54:52.685Z,5
2019-01-11T07:56:02.856Z,5
2019-01-11T07:57:12.979Z,5
2019-01-11T07:58:23.083Z,5
2019-01-11T07:59:33.197Z,5
2019-01-11T08:00:43.294Z,5
2019-01-11T08:01:53.400Z,5
2019-01-11T08:03:03.254Z,5
2019-01-11T08:04:13.459Z,5
2019-01-11T08:05:23.644Z,5
2019-01-11T08:06:33.751Z,5
2019-01-11T08:07:43.862Z,5
2019-01-11T08:08:53.978Z,5
2019-01-11T08:10:04.099Z,5
2019-01-11T08:11:14.237Z,5
2019-01-11T08:12:24.364Z,5
2019-01-11T08:13:34.477Z,5
2019-01-11T08:14:44.604Z,5
2019-01-11T08:15:54.706Z,5
2019-01-11T08:17:04.834Z,5
2019-01-11T08:18:14.975Z,5
2019-01-11T08:19:25.099Z,5
2019-01-11T08:20:35.209Z,5
2019-01-11T08:21:45.332Z,5
2019-01-11T08:22:55.559Z,5
2019-01-11T08:24:05.341Z,5
2019-01-11T08:25:15.622Z,10
2019-01-11T08:26:25.752Z,5
2019-01-11T08:27:35.875Z,5
2019-01-11T08:28:46.220Z,5
2019-01-11T08:29:56.329Z,5
2019-01-11T08:31:06.452Z,5
2019-01-11T08:32:16.557Z,5
2019-01-11T08:33:28.402Z,10
2019-01-11T08:34:38.623Z,10
2019-01-11T08:35:48.761Z,10
2019-01-11T08:36:58.888Z,10
2019-01-11T08:38:08.747Z,10
2019-01-11T08:39:18.877Z,15
2019-01-11T08:40:29.006Z,15
2019-01-11T08:41:39.135Z,15
2019-01-11T08:42:49.268Z,15
2019-01-11T08:43:59.403Z,15
2019-01-11T08:45:09.515Z,15
2019-01-11T08:46:19.664Z,15
2019-01-11T08:47:29.778Z,20
2019-01-11T08:48:40.148Z,15
2019-01-11T08:49:50.274Z,15
2019-01-11T08:51:05.216Z,15
2019-01-11T08:52:15.328Z,15
2019-01-11T08:53:25.437Z,15
2019-01-11T08:54:35.310Z,15
2019-01-11T08:55:45.442Z,15
2019-01-11T08:56:55.562Z,15
2019-01-11T08:58:05.715Z,15
2019-01-11T08:59:15.836Z,15
2019-01-11T09:00:25.946Z,20
2019-01-11T09:01:36.052Z,20
2019-01-11T09:02:46.205Z,20
2019-01-11T09:03:56.319Z,20
2019-01-11T09:05:06.437Z,20
2019-01-11T09:06:16.564Z,20
2019-01-11T09:07:26.696Z,30
2019-01-11T09:08:36.559Z,30
2019-01-11T09:09:46.696Z,30
2019-01-11T09:10:56.849Z,30
2019-01-11T09:12:06.973Z,30
2019-01-11T09:13:17.098Z,25
2019-01-11T09:14:26.863Z,25
2019-01-11T09:15:36.966Z,30
2019-01-11T09:16:47.236Z,30
2019-01-11T09:17:57.571Z,30
2019-01-11T09:19:07.731Z,35
2019-01-11T09:20:17.851Z,40
2019-01-11T09:21:27.958Z,45
2019-01-11T09:22:38.062Z,40
2019-01-11T09:23:48.183Z,40
2019-01-11T09:24:58.307Z,40
2019-01-11T09:26:08.409Z,40
2019-01-11T09:27:18.523Z,40
2019-01-11T09:28:28.644Z,40
2019-01-11T09:29:38.895Z,45
2019-01-11T09:30:49.008Z,45
2019-01-11T09:32:00.062Z,45
2019-01-11T09:33:10.167Z,40
2019-01-11T09:34:20.278Z,45
2019-01-11T09:35:30.425Z,45
2019-01-11T09:36:40.564Z,45
2019-01-11T09:37:52.064Z,45
2019-01-11T09:39:02.173Z,45
2019-01-11T09:40:12.313Z,40
2019-01-11T09:41:22.440Z,40
2019-01-11T09:42:32.310Z,35
2019-01-11T09:43:42.432Z,30
2019-01-11T09:44:52.557Z,30
2019-01-11T09:46:02.683Z,30
2019-01-11T09:47:12.805Z,35
2019-01-11T09:48:22.921Z,35
2019-01-11T09:49:33.063Z,30
2019-01-11T09:50:43.179Z,35
2019-01-11T09:51:53.330Z,30
2019-01-11T09:53:03.438Z,35
2019-01-11T09:54:13.591Z,35
2019-01-11T09:55:23.727Z,40
2019-01-11T09:56:33.867Z,45
2019-01-11T09:57:43.994Z,50
2019-01-11T09:58:53.851Z,50
2019-01-11T10:00:03.983Z,50
2019-01-11T10:01:14.099Z,50
2019-01-11T10:02:23.853Z,50
2019-01-11T10:03:33.968Z,50
2019-01-11T10:04:43.831Z,50
2019-01-11T10:05:54.009Z,45
2019-01-11T10:07:04.200Z,45
2019-01-11T10:08:14.333Z,45
2019-01-11T10:09:24.479Z,45
2019-01-11T10:10:34.596Z,50
2019-01-11T10:11:44.727Z,50
2019-01-11T10:12:54.834Z,55
2019-01-11T10:14:04.966Z,65
2019-01-11T10:15:15.084Z,70
2019-01-11T10:16:25.958Z,75
2019-01-11T10:17:36.097Z,85
2019-01-11T10:18:46.228Z,85
2019-01-11T10:19:57.353Z,80
2019-01-11T10:21:07.502Z,75
2019-01-11T10:22:17.641Z,75
2019-01-11T10:23:27.786Z,80
2019-01-11T10:24:37.558Z,75
2019-01-11T10:25:47.685Z,70
2019-01-11T10:26:59.027Z,70
2019-01-11T10:28:09.229Z,65
2019-01-11T10:29:19.010Z,65
2019-01-11T10:30:29.140Z,65
2019-01-11T10:31:39.282Z,65
2019-01-11T10:32:49.428Z,70
2019-01-11T10:33:59.559Z,65
2019-01-11T10:35:09.727Z,60
2019-01-11T10:36:19.883Z,60
2019-01-11T10:37:30.013Z,65
2019-01-11T10:38:40.147Z,70
2019-01-11T10:39:50.346Z,65
2019-01-11T10:41:00.496Z,65
2019-01-11T10:42:10.378Z,65
2019-01-11T10:43:20.502Z,65
2019-01-11T10:44:30.618Z,65
2019-01-11T10:45:40.725Z,60
2019-01-11T10:46:56.355Z,65
2019-01-11T10:48:06.480Z,65
2019-01-11T10:49:16.630Z,55
2019-01-11T10:50:26.770Z,55
2019-01-11T10:51:38.343Z,55
2019-01-11T10:52:48.499Z,65
2019-01-11T10:53:58.615Z,80
2019-01-11T10:55:08.731Z,75
2019-01-11T10:56:18.834Z,85
2019-01-11T10:57:28.966Z,85
2019-01-11T10:58:39.110Z,90
2019-01-11T10:59:49.235Z,120
2019-01-11T11:00:59.376Z,110
2019-01-11T11:02:09.497Z,85
2019-01-11T11:03:19.673Z,85
2019-01-11T11:04:29.566Z,100
2019-01-11T11:05:39.720Z,100
2019-01-11T11:06:49.848Z,90
2019-01-11T11:07:59.981Z,65
2019-01-11T11:09:10.143Z,80
2019-01-11T11:10:20.274Z,75
2019-01-11T11:11:30.411Z,65
2019-01-11T11:12:40.570Z,60
2019-01-11T11:13:50.707Z,80
2019-01-11T11:15:00.852Z,70
2019-01-11T11:16:10.957Z,60
2019-01-11T11:17:21.073Z,65
2019-01-11T11:18:30.851Z,65
2019-01-11T11:19:41.002Z,65
2019-01-11T11:20:51.117Z,65
2019-01-11T11:22:01.468Z,70
2019-01-11T11:23:11.595Z,55
2019-01-11T11:24:21.721Z,50
2019-01-11T11:25:32.614Z,55
2019-01-11T11:26:42.739Z,65
2019-01-11T11:27:52.850Z,70
2019-01-11T11:29:03.006Z,80
2019-01-11T11:30:13.129Z,60
2019-01-11T11:31:23.260Z,60
2019-01-11T11:32:33.394Z,55
2019-01-11T11:33:43.542Z,60
2019-01-11T11:34:53.644Z,70
2019-01-11T11:36:03.779Z,60
2019-01-11T11:37:17.724Z,55
2019-01-11T11:38:27.933Z,60
2019-01-11T11:39:38.044Z,65
2019-01-11T11:40:48.169Z,80
2019-01-11T11:41:58.272Z,75
2019-01-11T11:43:08.405Z,70
2019-01-11T11:44:18.590Z,65
2019-01-11T11:45:28.762Z,70
2019-01-11T11:46:38.958Z,65
2019-01-11T11:47:49.169Z,70
2019-01-11T11:48:59.304Z,65
2019-01-11T11:50:09.432Z,55
2019-01-11T11:51:19.572Z,55
2019-01-11T11:52:29.679Z,55
2019-01-11T11:53:39.787Z,65
2019-01-11T11:54:49.889Z,60
2019-01-11T11:55:59.993Z,45
2019-01-11T11:57:10.135Z,50
2019-01-11T11:58:20.253Z,50
2019-01-11T11:59:30.380Z,50
2019-01-11T12:00:40.497Z,40
2019-01-11T12:01:57.318Z,40
2019-01-11T12:03:07.436Z,40
2019-01-11T12:04:17.555Z,50
2019-01-11T12:05:27.685Z,50
2019-01-11T12:06:37.833Z,55
2019-01-11T12:07:47.996Z,65
2019-01-11T12:08:58.133Z,60
2019-01-11T12:10:08.546Z,65
2019-01-11T12:11:18.662Z,85
2019-01-11T12:12:28.798Z,85
2019-01-11T12:13:41.862Z,80
2019-01-11T12:14:51.980Z,80
2019-01-11T12:16:02.111Z,85
2019-01-11T12:17:12.238Z,80
2019-01-11T12:18:22.337Z,70
2019-01-11T12:19:32.486Z,60
2019-01-11T12:20:42.617Z,55
2019-01-11T12:22:01.589Z,50
2019-01-11T12:23:11.829Z,40
2019-01-11T12:24:21.702Z,40
2019-01-11T12:25:32.001Z,40
2019-01-11T12:26:42.210Z,45
2019-01-11T12:27:52.441Z,45
2019-01-11T12:29:02.583Z,45
2019-01-11T12:30:12.762Z,40
2019-01-11T12:31:22.901Z,50
2019-01-11T12:32:33.028Z,60
2019-01-11T12:33:43.141Z,95
2019-01-11T12:34:53.016Z,90
2019-01-11T12:36:03.147Z,95
2019-01-11T12:37:13.258Z,85
2019-01-11T12:38:23.680Z,75
2019-01-11T12:39:33.826Z,80
2019-01-11T12:40:43.943Z,65
2019-01-11T12:41:54.127Z,65
2019-01-11T12:43:04.252Z,85
2019-01-11T12:44:14.381Z,75
2019-01-11T12:45:24.543Z,55
2019-01-11T12:46:34.681Z,65
2019-01-11T12:47:44.792Z,95
2019-01-11T12:48:54.982Z,140
2019-01-11T12:50:05.113Z,205
2019-01-11T12:51:15.268Z,195
2019-01-11T12:52:25.403Z,140
2019-01-11T12:53:35.514Z,105
2019-01-11T12:54:45.693Z,110
2019-01-11T12:55:55.835Z,80
2019-01-11T12:57:05.957Z,75
2019-01-11T12:58:16.064Z,85
2019-01-11T12:59:26.225Z,75
2019-01-11T13:00:36.373Z,70
2019-01-11T13:01:46.492Z,70
2019-01-11T13:02:56.606Z,65
2019-01-11T13:04:06.721Z,65
2019-01-11T13:05:16.862Z,55
2019-01-11T13:06:26.992Z,65
2019-01-11T13:07:37.095Z,55
2019-01-11T13:08:47.226Z,60
2019-01-11T13:09:57.102Z,65
2019-01-11T13:11:07.225Z,60
2019-01-11T13:12:17.390Z,55
2019-01-11T13:13:27.241Z,55
2019-01-11T13:14:37.388Z,45
2019-01-11T13:15:47.505Z,50
2019-01-11T13:16:57.358Z,55
2019-01-11T13:18:07.524Z,60
2019-01-11T13:19:17.657Z,55
2019-01-11T13:20:27.764Z,65
2019-01-11T13:21:37.898Z,60
2019-01-11T13:22:48.036Z,50
2019-01-11T13:23:58.153Z,65
2019-01-11T13:25:08.026Z,80
2019-01-11T13:26:18.155Z,80
2019-01-11T13:27:28.264Z,75
2019-01-11T13:28:38.125Z,80
2019-01-11T13:29:48.262Z,75
2019-01-11T13:30:58.386Z,70
2019-01-11T13:32:08.496Z,70
2019-01-11T13:33:18.626Z,60
2019-01-11T13:34:28.756Z,70
2019-01-11T13:35:38.900Z,65
2019-01-11T13:36:56.248Z,60
2019-01-11T13:38:05.771Z,55
2019-01-11T13:39:15.876Z,50
2019-01-11T13:40:26.026Z,45
2019-01-11T13:41:36.137Z,40
2019-01-11T13:42:46.262Z,40
2019-01-11T13:43:56.385Z,35
2019-01-11T13:45:06.528Z,30
2019-01-11T13:46:16.647Z,30
2019-01-11T13:47:26.783Z,30
2019-01-11T13:48:36.569Z,35
2019-01-11T13:49:46.702Z,40
2019-01-11T13:50:56.847Z,45
2019-01-11T13:52:12.072Z,45
2019-01-11T13:53:22.246Z,40
2019-01-11T13:54:32.363Z,35
2019-01-11T13:55:42.248Z,40
2019-01-11T13:56:52.375Z,40
2019-01-11T13:58:02.508Z,40
2019-01-11T13:59:12.638Z,40
2019-01-11T14:00:22.948Z,45
2019-01-11T14:01:33.098Z,40
2019-01-11T14:02:43.761Z,40
2019-01-11T14:03:53.967Z,40
2019-01-11T14:05:04.114Z,45
2019-01-11T14:06:13.992Z,40
2019-01-11T14:07:24.126Z,35
2019-01-11T14:08:34.258Z,40
2019-01-11T14:09:44.368Z,35
2019-01-11T14:10:54.541Z,35
2019-01-11T14:12:04.659Z,35
2019-01-11T14:13:14.817Z,35
2019-01-11T14:14:24.952Z,40
2019-01-11T14:15:35.106Z,30
2019-01-11T14:16:45.457Z,30
2019-01-11T14:17:55.571Z,25
2019-01-11T14:19:06.083Z,30
2019-01-11T14:20:16.235Z,30
2019-01-11T14:21:26.423Z,25
2019-01-11T14:22:36.304Z,30
2019-01-11T14:23:46.427Z,20
2019-01-11T14:24:56.591Z,20
2019-01-11T14:26:06.729Z,15
2019-01-11T14:27:16.605Z,25
2019-01-11T14:28:26.971Z,25
2019-01-11T14:29:36.854Z,20
2019-01-11T14:30:48.337Z,20
2019-01-11T14:31:58.665Z,15
2019-01-11T14:33:08.798Z,15
2019-01-11T14:34:18.936Z,15
2019-01-11T14:35:29.076Z,15
2019-01-11T14:36:39.400Z,10
2019-01-11T14:37:49.768Z,10
2019-01-11T14:39:00.096Z,10
2019-01-11T14:40:10.259Z,10
2019-01-11T14:41:20.368Z,10
2019-01-11T14:42:30.552Z,10
2019-01-11T14:43:40.414Z,10
2019-01-11T14:44:50.540Z,5
2019-01-11T14:46:00.696Z,10
2019-01-11T14:47:10.571Z,10
2019-01-11T14:48:20.711Z,10
2019-01-11T14:49:30.888Z,10
2019-01-11T14:50:41.040Z,10
2019-01-11T14:51:50.931Z,5
2019-01-11T14:53:01.078Z,5
2019-01-11T14:54:11.237Z,5
2019-01-11T14:55:21.420Z,5
2019-01-11T14:56:32.499Z,5
2019-01-11T14:57:42.366Z,5
2019-01-11T14:58:52.553Z,5
2019-01-11T15:00:02.736Z,5
2019-01-11T15:01:12.912Z,5
2019-01-11T15:02:23.081Z,5
2019-01-11T15:03:33.214Z,0
2019-01-11T15:04:43.394Z,0
2019-01-11T15:05:53.566Z,0
2019-01-11T15:07:03.687Z,5
2019-01-11T15:08:13.891Z,5
2019-01-11T15:09:24.057Z,5
2019-01-11T15:10:34.209Z,5
2019-01-11T15:11:44.362Z,5
2019-01-11T15:12:54.494Z,0
2019-01-11T15:14:04.635Z,0
2019-01-11T15:15:14.818Z,0
2019-01-11T15:16:24.969Z,0
2019-01-11T15:17:35.108Z,0
2019-01-11T15:18:45.240Z,0
2019-01-11T15:19:55.844Z,0
2019-01-11T15:21:06.010Z,0
2019-01-11T15:22:15.901Z,0
2019-01-11T15:23:26.033Z,0
2019-01-11T15:24:36.175Z,0
2019-01-11T15:25:46.334Z,0
2019-01-11T15:26:56.481Z,0
2019-01-11T15:28:06.662Z,0
2019-01-11T15:29:17.016Z,0
2019-01-11T15:30:27.186Z,0
2019-01-11T15:31:37.361Z,0
2019-01-11T15:32:47.516Z,0
2019-01-11T15:33:57.649Z,0
2019-01-11T15:35:07.855Z,0
2019-01-11T15:36:17.744Z,0
2019-01-11T15:37:27.911Z,0
2019-01-11T15:38:38.286Z,0
2019-01-11T15:39:48.463Z,0
2019-01-11T15:40:58.614Z,0
2019-01-11T15:42:08.765Z,0
2019-01-11T15:43:18.937Z,0
2019-01-11T15:44:29.101Z,0
2019-01-11T15:45:39.302Z,0
2019-01-11T15:46:49.516Z,0
2019-01-11T15:48:01.171Z,0
2019-01-11T15:49:11.344Z,0
2019-01-11T15:50:21.494Z,0
2019-01-11T15:51:31.841Z,0
2019-01-11T15:52:43.201Z,0
2019-01-11T15:53:53.368Z,0
2019-01-11T15:55:03.267Z,0
2019-01-11T15:56:13.423Z,0
2019-01-11T15:57:23.604Z,0
2019-01-11T15:58:33.496Z,0
2019-01-11T15:59:43.659Z,0
2019-01-11T16:00:54.066Z,0
2019-01-11T16:02:04.247Z,0
2019-01-11T16:03:14.402Z,0
2019-01-11T16:04:24.315Z,0
2019-01-11T16:05:34.480Z,0
2019-01-11T16:06:44.652Z,0
2019-01-11T16:07:55.771Z,0
2019-01-11T16:09:05.928Z,0
2019-01-11T16:10:16.079Z,0
2019-01-11T16:11:26.231Z,0
2019-01-11T16:12:36.389Z,0
2019-01-11T16:13:46.556Z,0
2019-01-11T16:14:56.709Z,0
2019-01-11T16:16:06.873Z,0
2019-01-11T16:17:17.065Z,0
2019-01-11T16:18:27.202Z,0
2019-01-11T16:19:37.362Z,0
2019-01-11T16:20:47.509Z,0
2019-01-11T16:21:57.932Z,0
2019-01-11T16:23:08.299Z,0
2019-01-11T16:24:18.459Z,0
2019-01-11T16:25:28.594Z,0
2019-01-11T16:26:38.778Z,0
2019-01-11T16:27:48.937Z,0
2019-01-11T16:28:59.140Z,0
2019-01-11T16:30:09.322Z,0
2019-01-11T16:31:19.508Z,0
2019-01-11T16:32:29.394Z,0
2019-01-11T16:33:39.286Z,0
2019-01-11T16:34:49.659Z,0
2019-01-11T16:35:59.930Z,0
2019-01-11T16:37:11.203Z,0
2019-01-11T16:38:21.334Z,0
2019-01-11T16:39:31.614Z,0
2019-01-11T16:40:41.661Z,0
2019-01-11T16:41:51.917Z,0
2019-01-11T16:43:02.098Z,0
2019-01-11T16:44:12.362Z,0
2019-01-11T16:45:22.587Z,0
2019-01-11T16:46:32.857Z,0
2019-01-11T16:47:42.837Z,0
2019-01-11T16:48:53.097Z,0
2019-01-11T16:50:03.264Z,0
2019-01-11T16:51:13.609Z,0
2019-01-11T16:52:25.284Z,0
2019-01-11T16:53:35.569Z,0
2019-01-11T16:54:45.544Z,0
2019-01-11T16:55:56.095Z,0
2019-01-11T16:57:06.472Z,0
2019-01-11T16:58:16.770Z,0
2019-01-11T16:59:26.955Z,0
2019-01-11T17:00:37.151Z,0
2019-01-11T17:01:47.151Z,0
2019-01-11T17:02:57.332Z,0
2019-01-11T17:04:07.722Z,0